Terminal Aerodrome Forecast
Issued by NWS

Home | Current Version | Previous Version | Text Only | Print | Product List | Glossary Off
Versions: 1 2 3 4 5 6 7 8 9 10 11 12 13 14 15 16 17 18

000
FTUS42 KMHX 282300
TAFISO
TAF
KISO 282339Z 2900/2924 18005KT P6SM SCT250
     FM290800 18005KT 3SM BR BKN007 WS015/22030KT
     FM291300 23011KT P6SM SCT035 BKN250
      AMD LTD TO CLD VIS AND WIND=

USA.gov is the U.S. government's official web portal to all federal, state and local government web resources and services.